createdAt,value
2018-08-03T00:01:48.110Z,100308.00
2018-08-03T00:04:17.440Z,100302.00
2018-08-03T00:06:46.924Z,100305.00
2018-08-03T00:09:16.339Z,100306.00
2018-08-03T00:11:45.687Z,100302.00
2018-08-03T00:14:15.120Z,100304.00
2018-08-03T00:16:44.458Z,100294.00
2018-08-03T00:19:13.802Z,100295.00
2018-08-03T00:21:43.172Z,100294.00
2018-08-03T00:24:12.562Z,100295.00
2018-08-03T00:26:41.984Z,100290.00
2018-08-03T00:29:11.307Z,100299.00
2018-08-03T00:31:40.727Z,100296.00
2018-08-03T00:34:10.096Z,100292.00
2018-08-03T00:36:39.464Z,100287.00
2018-08-03T00:39:10.388Z,100293.00
2018-08-03T00:41:39.738Z,100290.00
2018-08-03T00:44:09.179Z,100291.00
2018-08-03T00:46:38.532Z,100292.00
2018-08-03T00:49:08.007Z,100290.00
2018-08-03T00:51:37.377Z,100294.00
2018-08-03T00:54:06.785Z,100287.00
2018-08-03T00:56:36.152Z,100283.00
2018-08-03T00:59:05.508Z,100289.00
2018-08-03T01:01:34.884Z,100284.00
2018-08-03T01:04:04.227Z,100287.00
2018-08-03T01:06:33.603Z,100283.00
2018-08-03T01:09:03.037Z,100286.00
2018-08-03T01:11:32.401Z,100280.00
2018-08-03T01:14:01.733Z,100288.00
2018-08-03T01:16:34.180Z,100283.00
2018-08-03T01:19:03.546Z,100282.00
2018-08-03T01:21:32.906Z,100280.00
2018-08-03T01:24:02.336Z,100282.00
2018-08-03T01:26:31.868Z,100281.00
2018-08-03T01:29:01.252Z,100281.00
2018-08-03T01:31:30.571Z,100280.00
2018-08-03T01:34:00.240Z,100292.00
2018-08-03T01:36:29.634Z,100293.00
2018-08-03T01:38:58.998Z,100288.00
2018-08-03T01:41:28.332Z,100289.00
2018-08-03T01:43:57.736Z,100292.00
2018-08-03T01:46:28.044Z,100291.00
2018-08-03T01:48:57.404Z,100294.00
2018-08-03T01:51:26.914Z,100291.00
2018-08-03T01:53:56.404Z,100289.00
2018-08-03T01:56:25.854Z,100290.00
2018-08-03T01:59:00.764Z,100299.00
2018-08-03T02:01:37.986Z,100298.00
2018-08-03T02:04:07.357Z,100299.00
2018-08-03T02:06:36.773Z,100300.00
2018-08-03T02:09:08.746Z,100301.00
2018-08-03T02:11:38.369Z,100295.00
2018-08-03T02:14:07.718Z,100301.00
2018-08-03T02:16:37.035Z,100297.00
2018-08-03T02:19:06.378Z,100296.00
2018-08-03T02:21:35.824Z,100290.00
2018-08-03T02:24:05.169Z,100291.00
2018-08-03T02:26:34.488Z,100292.00
2018-08-03T02:29:03.880Z,100284.00
2018-08-03T02:31:33.234Z,100288.00
2018-08-03T02:34:02.638Z,100285.00
2018-08-03T02:36:31.971Z,100282.00
2018-08-03T02:39:01.388Z,100284.00
2018-08-03T02:41:30.705Z,100285.00
2018-08-03T02:44:00.101Z,100286.00
2018-08-03T02:46:29.428Z,100293.00
2018-08-03T02:48:58.883Z,100292.00
2018-08-03T02:51:28.243Z,100295.00
2018-08-03T02:53:57.719Z,100291.00
2018-08-03T02:56:27.061Z,100294.00
2018-08-03T02:58:56.425Z,100293.00
2018-08-03T03:01:25.771Z,100297.00
2018-08-03T03:03:55.199Z,100293.00
2018-08-03T03:06:35.194Z,100292.00
2018-08-03T03:09:06.258Z,100291.00
2018-08-03T03:11:35.636Z,100299.00
2018-08-03T03:14:05.168Z,100298.00
2018-08-03T03:16:34.497Z,100296.00
2018-08-03T03:19:04.187Z,100302.00
2018-08-03T03:21:33.577Z,100303.00
2018-08-03T03:24:02.889Z,100302.00
2018-08-03T03:26:32.233Z,100306.00
2018-08-03T03:29:01.640Z,100303.00
2018-08-03T03:31:30.964Z,100301.00
2018-08-03T03:34:00.274Z,100299.00
2018-08-03T03:36:29.650Z,100306.00
2018-08-03T03:38:59.029Z,100311.00
2018-08-03T03:41:28.439Z,100308.00
2018-08-03T03:43:57.839Z,100313.00
2018-08-03T03:46:27.158Z,100315.00
2018-08-03T03:48:56.558Z,100311.00
2018-08-03T03:51:25.880Z,100317.00
2018-08-03T03:53:55.208Z,100316.00
2018-08-03T03:56:24.555Z,100317.00
2018-08-03T03:58:54.065Z,100319.00
2018-08-03T04:01:23.457Z,100320.00
2018-08-03T04:03:53.134Z,100321.00
2018-08-03T04:06:22.476Z,100313.00
2018-08-03T04:08:51.839Z,100321.00
2018-08-03T04:11:21.181Z,100322.00
2018-08-03T04:13:50.632Z,100317.00
2018-08-03T04:16:19.975Z,100319.00
2018-08-03T04:18:49.377Z,100320.00
2018-08-03T04:21:18.700Z,100322.00
2018-08-03T04:23:48.112Z,100315.00
2018-08-03T04:26:17.479Z,100319.00
2018-08-03T04:28:46.933Z,100321.00
2018-08-03T04:31:16.297Z,100317.00
2018-08-03T04:33:45.648Z,100317.00
2018-08-03T04:36:15.097Z,100319.00
2018-08-03T04:38:44.433Z,100321.00
2018-08-03T04:41:13.801Z,100323.00
2018-08-03T04:43:43.144Z,100327.00
2018-08-03T04:46:12.535Z,100328.00
2018-08-03T04:48:41.931Z,100323.00
2018-08-03T04:51:11.255Z,100322.00
2018-08-03T04:53:40.674Z,100319.00
2018-08-03T04:56:10.132Z,100319.00
2018-08-03T04:58:39.462Z,100314.00
2018-08-03T05:01:08.857Z,100312.00
2018-08-03T05:03:38.250Z,100315.00
2018-08-03T05:06:07.661Z,100324.00
2018-08-03T05:08:37.004Z,100324.00
2018-08-03T05:11:06.409Z,100324.00
2018-08-03T05:13:35.936Z,100320.00
2018-08-03T05:16:05.312Z,100327.00
2018-08-03T05:18:34.712Z,100327.00
2018-08-03T05:21:04.061Z,100324.00
2018-08-03T05:23:33.447Z,100323.00
2018-08-03T05:26:02.824Z,100321.00
2018-08-03T05:28:32.220Z,100332.00
2018-08-03T05:31:01.581Z,100337.00
2018-08-03T05:33:31.134Z,100333.00
2018-08-03T05:36:00.618Z,100337.00
2018-08-03T05:38:29.947Z,100338.00
2018-08-03T05:40:59.348Z,100338.00
2018-08-03T05:43:28.769Z,100335.00
2018-08-03T05:45:58.129Z,100334.00
2018-08-03T05:48:27.600Z,100339.00
2018-08-03T05:50:57.493Z,100339.00
2018-08-03T05:53:26.871Z,100342.00
2018-08-03T05:55:56.282Z,100345.00
2018-08-03T05:58:25.656Z,100341.00
2018-08-03T06:00:55.123Z,100344.00
2018-08-03T06:03:24.506Z,100342.00
2018-08-03T06:05:53.958Z,100342.00
2018-08-03T06:08:23.365Z,100343.00
2018-08-03T06:10:52.809Z,100348.00
2018-08-03T06:13:22.196Z,100345.00
2018-08-03T06:15:51.599Z,100345.00
2018-08-03T06:18:20.957Z,100345.00
2018-08-03T06:20:50.333Z,100343.00
2018-08-03T06:23:19.736Z,100348.00
2018-08-03T06:25:49.189Z,100350.00
2018-08-03T06:28:18.555Z,100341.00
2018-08-03T06:30:48.038Z,100347.00
2018-08-03T06:33:17.473Z,100346.00
2018-08-03T06:35:47.396Z,100346.00
2018-08-03T06:38:16.843Z,100343.00
2018-08-03T06:40:46.232Z,100336.00
2018-08-03T06:43:15.620Z,100341.00
2018-08-03T06:45:45.093Z,100339.00
2018-08-03T06:48:14.490Z,100342.00
2018-08-03T06:50:43.872Z,100346.00
2018-08-03T06:53:13.279Z,100346.00
2018-08-03T06:55:42.681Z,100339.00
2018-08-03T06:58:12.165Z,100336.00
2018-08-03T07:00:41.556Z,100339.00
2018-08-03T07:03:10.921Z,100335.00
2018-08-03T07:05:40.379Z,100334.00
2018-08-03T07:08:09.705Z,100332.00
2018-08-03T07:10:39.143Z,100330.00
2018-08-03T07:13:08.550Z,100332.00
2018-08-03T07:15:37.999Z,100329.00
2018-08-03T07:18:07.763Z,100329.00
2018-08-03T07:20:37.207Z,100329.00
2018-08-03T07:23:06.532Z,100321.00
2018-08-03T07:25:35.955Z,100321.00
2018-08-03T07:28:05.413Z,100321.00
2018-08-03T07:30:34.848Z,100321.00
2018-08-03T07:33:04.214Z,100320.00
2018-08-03T07:35:33.608Z,100322.00
2018-08-03T07:41:07.699Z,100331.00
2018-08-03T07:43:37.108Z,100328.00
2018-08-03T07:46:06.981Z,100329.00
2018-08-03T07:48:36.396Z,100328.00
2018-08-03T07:51:06.085Z,100325.00
2018-08-03T07:53:35.630Z,100323.00
2018-08-03T07:56:05.000Z,100327.00
2018-08-03T07:58:34.401Z,100323.00
2018-08-03T08:01:03.824Z,100323.00
2018-08-03T08:03:33.248Z,100320.00
2018-08-03T08:06:02.629Z,100317.00
2018-08-03T08:08:32.073Z,100310.00
2018-08-03T08:11:01.540Z,100313.00
2018-08-03T08:13:30.959Z,100313.00
2018-08-03T08:16:00.295Z,100304.00
2018-08-03T08:18:29.744Z,100306.00
2018-08-03T08:20:59.129Z,100306.00
2018-08-03T08:23:28.559Z,100306.00
2018-08-03T08:25:57.896Z,100312.00
2018-08-03T08:28:27.313Z,100311.00
2018-08-03T08:30:57.341Z,100312.00
2018-08-03T08:33:26.757Z,100308.00
2018-08-03T08:35:56.296Z,100303.00
2018-08-03T08:38:25.656Z,100302.00
2018-08-03T08:40:55.047Z,100302.00
2018-08-03T08:43:24.452Z,100300.00
2018-08-03T08:45:53.841Z,100306.00
2018-08-03T08:48:23.293Z,100300.00
2018-08-03T08:50:53.619Z,100300.00
2018-08-03T08:53:23.099Z,100298.00
2018-08-03T08:55:52.433Z,100296.00
2018-08-03T08:58:21.826Z,100300.00
2018-08-03T09:00:51.254Z,100298.00
2018-08-03T09:03:20.647Z,100297.00
2018-08-03T09:05:50.114Z,100302.00
2018-08-03T09:08:19.520Z,100299.00
2018-08-03T09:10:48.946Z,100292.00
2018-08-03T09:13:18.389Z,100295.00
2018-08-03T09:15:47.746Z,100294.00
2018-08-03T09:18:17.168Z,100292.00
2018-08-03T09:20:46.569Z,100288.00
2018-08-03T09:23:16.001Z,100282.00
2018-08-03T09:25:45.397Z,100285.00
2018-08-03T09:28:14.841Z,100280.00
2018-08-03T09:30:44.776Z,100273.00
2018-08-03T09:33:14.143Z,100272.00
2018-08-03T09:35:43.529Z,100263.00
2018-08-03T09:38:12.956Z,100259.00
2018-08-03T09:40:42.338Z,100257.00
2018-08-03T09:43:11.752Z,100252.00
2018-08-03T09:45:41.229Z,100252.00
2018-08-03T09:48:10.673Z,100247.00
2018-08-03T09:50:40.139Z,100252.00
2018-08-03T09:53:09.546Z,100241.00
2018-08-03T09:55:38.942Z,100244.00
2018-08-03T09:58:08.321Z,100242.00
2018-08-03T10:00:42.732Z,100239.00
2018-08-03T10:03:12.249Z,100239.00
2018-08-03T10:05:41.637Z,100242.00
2018-08-03T10:08:11.011Z,100235.00
2018-08-03T10:10:40.451Z,100238.00
2018-08-03T10:13:09.846Z,100232.00
2018-08-03T10:15:39.312Z,100233.00
2018-08-03T10:18:08.659Z,100226.00
2018-08-03T10:20:38.038Z,100225.00
2018-08-03T10:23:07.427Z,100222.00
2018-08-03T10:25:36.860Z,100216.00
2018-08-03T10:28:06.235Z,100211.00
2018-08-03T10:30:35.720Z,100213.00
2018-08-03T10:33:05.165Z,100210.00
2018-08-03T10:35:34.595Z,100209.00
2018-08-03T10:38:04.016Z,100207.00
2018-08-03T10:40:33.424Z,100208.00
2018-08-03T10:43:02.883Z,100204.00
2018-08-03T10:45:32.252Z,100204.00
2018-08-03T10:48:01.684Z,100198.00
2018-08-03T10:50:31.183Z,100200.00
2018-08-03T10:53:00.641Z,100198.00
2018-08-03T10:55:29.990Z,100195.00
2018-08-03T10:57:59.401Z,100191.00
2018-08-03T11:00:31.240Z,100191.00
2018-08-03T11:03:01.074Z,100192.00
2018-08-03T11:05:30.647Z,100184.00
2018-08-03T11:08:00.050Z,100183.00
2018-08-03T11:10:29.428Z,100180.00
2018-08-03T11:12:58.882Z,100168.00
2018-08-03T11:15:28.251Z,100166.00
2018-08-03T11:17:57.698Z,100170.00
2018-08-03T11:20:27.118Z,100178.00
2018-08-03T11:22:56.539Z,100181.00
2018-08-03T11:25:26.003Z,100170.00
2018-08-03T11:27:55.448Z,100172.00
2018-08-03T11:30:24.969Z,100168.00
2018-08-03T11:32:54.440Z,100171.00
2018-08-03T11:35:23.849Z,100174.00
2018-08-03T11:37:53.180Z,100165.00
2018-08-03T11:40:22.596Z,100159.00
2018-08-03T11:42:51.948Z,100166.00
2018-08-03T11:45:21.390Z,100159.00
2018-08-03T11:47:50.799Z,100152.00
2018-08-03T11:50:20.240Z,100157.00
2018-08-03T11:52:49.661Z,100154.00
2018-08-03T11:55:19.061Z,100153.00
2018-08-03T11:57:48.507Z,100145.00
2018-08-03T12:00:17.963Z,100144.00
2018-08-03T12:02:47.374Z,100144.00
2018-08-03T12:05:16.762Z,100146.00
2018-08-03T12:07:46.192Z,100146.00
2018-08-03T12:10:15.782Z,100138.00
2018-08-03T12:12:45.175Z,100130.00
2018-08-03T12:15:14.647Z,100133.00
2018-08-03T12:17:44.118Z,100130.00
2018-08-03T12:20:13.496Z,100124.00
2018-08-03T12:22:42.901Z,100122.00
2018-08-03T12:25:12.316Z,100112.00
2018-08-03T12:27:41.737Z,100108.00
2018-08-03T12:30:11.389Z,100110.00
2018-08-03T12:32:40.987Z,100105.00
2018-08-03T12:35:10.394Z,100100.00
2018-08-03T12:37:39.806Z,100101.00
2018-08-03T12:40:09.188Z,100097.00
2018-08-03T12:42:38.713Z,100100.00
2018-08-03T12:45:08.120Z,100097.00
2018-08-03T12:47:37.581Z,100092.00
2018-08-03T12:50:07.166Z,100094.00
2018-08-03T12:52:36.702Z,100094.00
2018-08-03T12:55:06.282Z,100090.00
2018-08-03T12:57:35.673Z,100090.00
2018-08-03T13:00:06.094Z,100084.00
2018-08-03T13:02:35.541Z,100089.00
2018-08-03T13:05:05.135Z,100086.00
2018-08-03T13:07:34.748Z,100084.00
2018-08-03T13:10:04.132Z,100084.00
2018-08-03T13:12:33.583Z,100080.00
2018-08-03T13:15:03.060Z,100079.00
2018-08-03T13:17:32.488Z,100077.00
2018-08-03T13:20:01.938Z,100070.00
2018-08-03T13:22:31.326Z,100060.00
2018-08-03T13:25:00.750Z,100062.00
2018-08-03T13:27:30.242Z,100051.00
2018-08-03T13:29:59.752Z,100051.00
2018-08-03T13:32:29.211Z,100052.00
2018-08-03T13:34:58.698Z,100058.00
2018-08-03T13:37:28.095Z,100046.00
2018-08-03T13:39:57.541Z,100040.00
2018-08-03T13:42:26.943Z,100038.00
2018-08-03T13:44:56.353Z,100040.00
2018-08-03T13:47:25.791Z,100036.00
2018-08-03T13:49:55.245Z,100034.00
2018-08-03T13:52:24.731Z,100026.00
2018-08-03T13:54:54.478Z,100034.00
2018-08-03T13:57:23.888Z,100025.00
2018-08-03T13:59:53.324Z,100023.00
2018-08-03T14:02:25.448Z,100020.00
2018-08-03T14:04:55.516Z,100024.00
2018-08-03T14:07:26.121Z,100018.00
2018-08-03T14:09:56.389Z,100013.00
2018-08-03T14:12:25.909Z,100013.00
2018-08-03T14:14:55.315Z,100013.00
2018-08-03T14:17:24.828Z,100010.00
2018-08-03T14:19:54.256Z,100004.00
2018-08-03T14:22:23.677Z,100005.00
2018-08-03T14:24:53.429Z,100002.00
2018-08-03T14:27:22.837Z,99994.00
2018-08-03T14:29:52.288Z,99998.00
2018-08-03T14:32:21.976Z,99997.00
2018-08-03T14:34:51.437Z,99991.00
2018-08-03T14:37:20.902Z,99992.00
2018-08-03T14:39:50.352Z,99988.00
2018-08-03T14:42:19.961Z,99988.00
2018-08-03T14:44:49.392Z,99987.00
2018-08-03T14:47:18.866Z,99981.00
2018-08-03T14:49:48.293Z,99979.00
2018-08-03T14:52:17.779Z,99977.00
2018-08-03T14:54:47.281Z,99976.00
2018-08-03T14:57:16.674Z,99978.00
2018-08-03T14:59:46.035Z,99974.00
2018-08-03T15:02:15.474Z,99969.00
2018-08-03T15:04:45.645Z,99965.00
2018-08-03T15:07:15.144Z,99968.00
2018-08-03T15:09:44.579Z,99965.00
2018-08-03T15:12:14.146Z,99968.00
2018-08-03T15:14:43.613Z,99958.00
2018-08-03T15:17:13.034Z,99954.00
2018-08-03T15:19:42.572Z,99957.00
2018-08-03T15:22:11.973Z,99959.00
2018-08-03T15:24:41.389Z,99956.00
2018-08-03T15:27:10.931Z,99951.00
2018-08-03T15:29:40.344Z,99943.00
2018-08-03T15:32:09.887Z,99948.00
2018-08-03T15:34:39.373Z,99945.00
2018-08-03T15:37:09.657Z,99947.00
2018-08-03T15:39:39.118Z,99950.00
2018-08-03T15:42:08.688Z,99945.00
2018-08-03T15:44:38.180Z,99945.00
2018-08-03T15:47:08.585Z,99948.00
2018-08-03T15:49:38.085Z,99944.00
2018-08-03T15:52:08.350Z,99937.00
2018-08-03T15:54:37.961Z,99931.00
2018-08-03T15:57:07.479Z,99937.00
2018-08-03T15:59:37.510Z,99935.00
2018-08-03T16:02:07.247Z,99930.00
2018-08-03T16:04:36.688Z,99928.00
2018-08-03T16:07:06.199Z,99927.00
2018-08-03T16:09:35.734Z,99927.00
2018-08-03T16:12:05.216Z,99924.00
2018-08-03T16:14:34.892Z,99918.00
2018-08-03T16:17:04.365Z,99915.00
2018-08-03T16:19:33.927Z,99914.00
2018-08-03T16:22:03.434Z,99910.00
2018-08-03T16:24:32.921Z,99914.00
2018-08-03T16:27:02.399Z,99907.00
2018-08-03T16:29:31.985Z,99903.00
2018-08-03T16:32:01.572Z,99905.00
2018-08-03T16:34:31.225Z,99906.00
2018-08-03T16:37:00.636Z,99904.00
2018-08-03T16:39:30.117Z,99909.00
2018-08-03T16:41:59.536Z,99903.00
2018-08-03T16:44:28.961Z,99900.00
2018-08-03T16:46:58.348Z,99901.00
2018-08-03T16:49:27.740Z,99899.00
2018-08-03T16:51:57.172Z,99895.00
2018-08-03T16:54:26.761Z,99895.00
2018-08-03T16:56:56.214Z,99899.00
2018-08-03T16:59:25.677Z,99902.00
2018-08-03T17:01:55.102Z,99900.00
2018-08-03T17:04:24.493Z,99897.00
2018-08-03T17:06:54.048Z,99896.00
2018-08-03T17:09:23.374Z,99894.00
2018-08-03T17:11:52.852Z,99893.00
2018-08-03T17:14:22.566Z,99889.00
2018-08-03T17:16:51.980Z,99884.00
2018-08-03T17:19:21.365Z,99885.00
2018-08-03T17:22:07.780Z,99886.00
2018-08-03T17:24:37.385Z,99893.00
2018-08-03T17:27:06.854Z,99884.00
2018-08-03T17:29:36.297Z,99886.00
2018-08-03T17:32:05.882Z,99887.00
2018-08-03T17:34:35.304Z,99880.00
2018-08-03T17:37:04.765Z,99889.00
2018-08-03T17:39:36.118Z,99889.00
2018-08-03T17:42:05.510Z,99886.00
2018-08-03T17:44:34.900Z,99884.00
2018-08-03T17:47:04.367Z,99885.00
2018-08-03T17:49:33.788Z,99883.00
2018-08-03T17:52:03.221Z,99880.00
2018-08-03T17:54:32.607Z,99880.00
2018-08-03T17:57:02.104Z,99880.00
2018-08-03T17:59:32.743Z,99884.00
2018-08-03T18:02:02.173Z,99885.00
2018-08-03T18:04:31.568Z,99889.00
2018-08-03T18:07:01.165Z,99888.00
2018-08-03T18:09:30.593Z,99887.00
2018-08-03T18:12:00.199Z,99886.00
2018-08-03T18:14:30.901Z,99888.00
2018-08-03T18:17:00.536Z,99896.00
2018-08-03T18:19:29.941Z,99898.00
2018-08-03T18:21:59.528Z,99895.00
2018-08-03T18:24:28.935Z,99901.00
2018-08-03T18:26:58.501Z,99901.00
2018-08-03T18:29:27.930Z,99898.00
2018-08-03T18:31:57.565Z,99899.00
2018-08-03T18:34:27.161Z,99905.00
2018-08-03T18:36:56.570Z,99906.00
2018-08-03T18:39:25.946Z,99906.00
2018-08-03T18:41:55.446Z,99903.00
2018-08-03T18:44:24.927Z,99906.00
2018-08-03T18:46:54.549Z,99904.00
2018-08-03T18:49:23.996Z,99907.00
2018-08-03T18:51:53.388Z,99908.00
2018-08-03T18:54:22.873Z,99911.00
2018-08-03T18:56:52.302Z,99913.00
2018-08-03T18:59:21.888Z,99916.00
2018-08-03T19:01:51.283Z,99920.00
2018-08-03T19:04:20.825Z,99923.00
2018-08-03T19:06:51.060Z,99924.00
2018-08-03T19:09:20.672Z,99923.00
2018-08-03T19:11:50.129Z,99933.00
2018-08-03T19:14:19.670Z,99931.00
2018-08-03T19:16:49.181Z,99933.00
2018-08-03T19:19:18.809Z,99933.00
2018-08-03T19:21:48.419Z,99939.00
2018-08-03T19:24:17.801Z,99941.00
2018-08-03T19:26:47.475Z,99941.00
2018-08-03T19:29:17.389Z,99945.00
2018-08-03T19:31:46.808Z,99952.00
2018-08-03T19:34:16.258Z,99952.00
2018-08-03T19:36:45.938Z,99956.00
2018-08-03T19:39:16.129Z,99964.00
2018-08-03T19:41:45.728Z,99963.00
2018-08-03T19:44:15.106Z,99961.00
2018-08-03T19:46:44.549Z,99966.00
2018-08-03T19:49:14.295Z,99965.00
2018-08-03T19:51:43.734Z,99970.00
2018-08-03T19:54:13.241Z,99969.00
2018-08-03T19:56:42.711Z,99971.00
2018-08-03T19:59:12.347Z,99975.00
2018-08-03T20:01:41.843Z,99969.00
2018-08-03T20:04:11.325Z,99976.00
2018-08-03T20:06:40.793Z,99979.00
2018-08-03T20:09:12.034Z,99981.00
2018-08-03T20:11:41.590Z,99978.00
2018-08-03T20:14:16.246Z,99979.00
2018-08-03T20:16:46.081Z,99979.00
2018-08-03T20:19:15.578Z,99980.00
2018-08-03T20:21:45.176Z,99977.00
2018-08-03T20:24:15.099Z,99984.00
2018-08-03T20:26:44.498Z,99985.00
2018-08-03T20:29:14.571Z,99985.00
2018-08-03T20:31:43.969Z,99982.00
2018-08-03T20:34:13.919Z,99989.00
2018-08-03T20:36:43.339Z,99990.00
2018-08-03T20:39:12.860Z,99989.00
2018-08-03T20:41:42.268Z,99989.00
2018-08-03T20:44:11.733Z,99988.00
2018-08-03T20:46:41.218Z,99990.00
2018-08-03T20:49:10.693Z,99991.00
2018-08-03T20:51:40.204Z,99990.00
2018-08-03T20:54:09.879Z,99983.00
2018-08-03T20:56:39.661Z,99981.00
2018-08-03T20:59:09.205Z,99982.00
2018-08-03T21:01:38.601Z,99983.00
2018-08-03T21:04:08.129Z,99984.00
2018-08-03T21:06:37.735Z,99988.00
2018-08-03T21:09:11.003Z,99986.00
2018-08-03T21:11:40.743Z,99989.00
2018-08-03T21:14:10.493Z,99986.00
2018-08-03T21:16:50.823Z,99984.00
2018-08-03T21:19:20.638Z,99987.00
2018-08-03T21:21:50.470Z,99981.00
2018-08-03T21:24:20.239Z,99982.00
2018-08-03T21:27:00.684Z,99984.00
2018-08-03T21:29:30.518Z,99986.00
2018-08-03T21:32:00.260Z,99983.00
2018-08-03T21:34:30.127Z,99986.00
2018-08-03T21:36:59.993Z,99985.00
2018-08-03T21:39:29.789Z,99985.00
2018-08-03T21:41:59.857Z,99983.00
2018-08-03T21:44:29.700Z,99982.00
2018-08-03T21:46:59.539Z,99980.00
2018-08-03T21:49:29.160Z,99984.00
2018-08-03T21:51:58.804Z,99979.00
2018-08-03T21:54:28.517Z,99975.00
2018-08-03T21:56:58.328Z,99975.00
2018-08-03T21:59:28.172Z,99972.00
2018-08-03T22:01:58.224Z,99975.00
2018-08-03T22:04:27.979Z,99978.00
2018-08-03T22:06:57.765Z,99976.00
2018-08-03T22:09:27.788Z,99975.00
2018-08-03T22:11:57.534Z,99972.00
2018-08-03T22:14:27.281Z,99979.00
2018-08-03T22:16:57.277Z,99983.00
2018-08-03T22:19:27.105Z,99982.00
2018-08-03T22:21:56.870Z,99976.00
2018-08-03T22:24:26.787Z,99981.00
2018-08-03T22:26:56.584Z,99982.00
2018-08-03T22:29:26.327Z,99976.00
2018-08-03T22:31:56.171Z,99976.00
2018-08-03T22:34:25.985Z,99975.00
2018-08-03T22:36:55.947Z,99976.00
2018-08-03T22:39:25.675Z,99978.00
2018-08-03T22:41:55.428Z,99975.00
2018-08-03T22:44:25.203Z,99973.00
2018-08-03T22:46:54.903Z,99973.00
2018-08-03T22:49:24.765Z,99977.00
2018-08-03T22:51:54.515Z,99973.00
2018-08-03T22:54:24.267Z,99975.00
2018-08-03T22:56:54.128Z,99974.00
2018-08-03T22:59:24.071Z,99970.00
2018-08-03T23:01:53.898Z,99973.00
2018-08-03T23:04:23.671Z,99974.00
2018-08-03T23:06:53.705Z,99971.00
2018-08-03T23:09:23.496Z,99973.00
2018-08-03T23:11:53.240Z,99967.00
2018-08-03T23:14:23.081Z,99966.00
2018-08-03T23:16:52.864Z,99962.00
2018-08-03T23:19:22.590Z,99966.00
2018-08-03T23:21:52.382Z,99966.00
2018-08-03T23:24:22.182Z,99965.00
2018-08-03T23:26:51.974Z,99967.00
2018-08-03T23:29:21.717Z,99963.00
2018-08-03T23:31:51.489Z,99961.00
2018-08-03T23:34:21.234Z,99960.00
2018-08-03T23:36:51.011Z,99958.00
2018-08-03T23:39:20.892Z,99960.00
2018-08-03T23:41:50.665Z,99955.00
2018-08-03T23:44:20.472Z,99953.00
2018-08-03T23:46:50.303Z,99953.00
2018-08-03T23:49:20.006Z,99953.00
2018-08-03T23:51:49.710Z,99951.00
2018-08-03T23:54:19.519Z,99947.00
2018-08-03T23:56:49.412Z,99946.00
2018-08-03T23:59:19.289Z,99941.00
